sensor_id;sensor_type;location;lat;lon;timestamp;P1;P2;P0
61592;PMS5003;47485;51.378;-1.342;2023-01-29T00:01:13;40;36;
61592;PMS5003;47485;51.378;-1.342;2023-01-29T00:03:40;37;34;
61592;PMS5003;47485;51.378;-1.342;2023-01-29T00:06:08;38;34;
61592;PMS5003;47485;51.378;-1.342;2023-01-29T00:08:36;36;35;
61592;PMS5003;47485;51.378;-1.342;2023-01-29T00:11:04;35;29;
61592;PMS5003;47485;51.378;-1.342;2023-01-29T00:13:31;34;32;
61592;PMS5003;47485;51.378;-1.342;2023-01-29T00:15:58;41;37;
61592;PMS5003;47485;51.378;-1.342;2023-01-29T00:18:26;36;32;
61592;PMS5003;47485;51.378;-1.342;2023-01-29T00:20:54;33;30;
61592;PMS5003;47485;51.378;-1.342;2023-01-29T00:23:22;38;32;
61592;PMS5003;47485;51.378;-1.342;2023-01-29T00:25:49;38;33;
61592;PMS5003;47485;51.378;-1.342;2023-01-29T00:28:16;37;32;
61592;PMS5003;47485;51.378;-1.342;2023-01-29T00:30:43;40;37;
61592;PMS5003;47485;51.378;-1.342;2023-01-29T00:33:10;47;38;
61592;PMS5003;47485;51.378;-1.342;2023-01-29T00:35:39;33;31;
61592;PMS5003;47485;51.378;-1.342;2023-01-29T00:38:07;33;31;
61592;PMS5003;47485;51.378;-1.342;2023-01-29T00:40:36;34;32;
61592;PMS5003;47485;51.378;-1.342;2023-01-29T00:43:03;28;24;
61592;PMS5003;47485;51.378;-1.342;2023-01-29T00:45:30;34;33;
61592;PMS5003;47485;51.378;-1.342;2023-01-29T00:47:57;35;31;
61592;PMS5003;47485;51.378;-1.342;2023-01-29T00:50:23;37;36;
61592;PMS5003;47485;51.378;-1.342;2023-01-29T00:52:51;31;29;
61592;PMS5003;47485;51.378;-1.342;2023-01-29T00:55:18;43;36;
61592;PMS5003;47485;51.378;-1.342;2023-01-29T00:57:45;27;25;
61592;PMS5003;47485;51.378;-1.342;2023-01-29T01:00:13;38;36;
61592;PMS5003;47485;51.378;-1.342;2023-01-29T01:02:42;29;26;
61592;PMS5003;47485;51.378;-1.342;2023-01-29T01:05:11;35;34;
61592;PMS5003;47485;51.378;-1.342;2023-01-29T01:07:39;36;32;
61592;PMS5003;47485;51.378;-1.342;2023-01-29T01:10:08;31;29;
61592;PMS5003;47485;51.378;-1.342;2023-01-29T01:12:36;29;24;
61592;PMS5003;47485;51.378;-1.342;2023-01-29T01:15:04;26;24;
61592;PMS5003;47485;51.378;-1.342;2023-01-29T01:17:32;25;23;
61592;PMS5003;47485;51.378;-1.342;2023-01-29T01:19:59;30;26;
61592;PMS5003;47485;51.378;-1.342;2023-01-29T01:22:26;32;26;
61592;PMS5003;47485;51.378;-1.342;2023-01-29T01:24:53;25;24;
61592;PMS5003;47485;51.378;-1.342;2023-01-29T01:27:20;22;18;
61592;PMS5003;47485;51.378;-1.342;2023-01-29T01:29:47;26;25;
61592;PMS5003;47485;51.378;-1.342;2023-01-29T01:32:14;31;27;
61592;PMS5003;47485;51.378;-1.342;2023-01-29T01:34:41;25;23;
61592;PMS5003;47485;51.378;-1.342;2023-01-29T01:37:08;22;20;
61592;PMS5003;47485;51.378;-1.342;2023-01-29T01:39:35;24;22;
61592;PMS5003;47485;51.378;-1.342;2023-01-29T01:42:02;28;26;
61592;PMS5003;47485;51.378;-1.342;2023-01-29T01:45:03;24;21;
61592;PMS5003;47485;51.378;-1.342;2023-01-29T01:47:33;28;26;
61592;PMS5003;47485;51.378;-1.342;2023-01-29T01:50:04;18;18;
61592;PMS5003;47485;51.378;-1.342;2023-01-29T01:52:35;25;21;
61592;PMS5003;47485;51.378;-1.342;2023-01-29T01:55:07;23;19;
61592;PMS5003;47485;51.378;-1.342;2023-01-29T01:57:37;28;25;
61592;PMS5003;47485;51.378;-1.342;2023-01-29T02:00:08;28;24;
61592;PMS5003;47485;51.378;-1.342;2023-01-29T02:02:38;30;27;
61592;PMS5003;47485;51.378;-1.342;2023-01-29T02:05:06;28;26;
61592;PMS5003;47485;51.378;-1.342;2023-01-29T02:07:39;29;25;
61592;PMS5003;47485;51.378;-1.342;2023-01-29T02:10:08;36;31;
61592;PMS5003;47485;51.378;-1.342;2023-01-29T02:12:39;31;29;
61592;PMS5003;47485;51.378;-1.342;2023-01-29T02:15:06;30;27;
61592;PMS5003;47485;51.378;-1.342;2023-01-29T02:17:33;35;33;
61592;PMS5003;47485;51.378;-1.342;2023-01-29T02:20:02;37;31;
61592;PMS5003;47485;51.378;-1.342;2023-01-29T02:22:44;33;31;
61592;PMS5003;47485;51.378;-1.342;2023-01-29T02:25:31;38;35;
61592;PMS5003;47485;51.378;-1.342;2023-01-29T02:28:14;43;36;
61592;PMS5003;47485;51.378;-1.342;2023-01-29T02:30:50;42;37;
61592;PMS5003;47485;51.378;-1.342;2023-01-29T02:33:26;46;41;
61592;PMS5003;47485;51.378;-1.342;2023-01-29T02:36:05;43;37;
61592;PMS5003;47485;51.378;-1.342;2023-01-29T02:38:40;47;41;
61592;PMS5003;47485;51.378;-1.342;2023-01-29T02:41:13;42;39;
61592;PMS5003;47485;51.378;-1.342;2023-01-29T02:43:46;49;40;
61592;PMS5003;47485;51.378;-1.342;2023-01-29T02:46:19;46;41;
61592;PMS5003;47485;51.378;-1.342;2023-01-29T02:48:56;46;40;
61592;PMS5003;47485;51.378;-1.342;2023-01-29T02:51:29;43;39;
61592;PMS5003;47485;51.378;-1.342;2023-01-29T02:54:02;39;34;
61592;PMS5003;47485;51.378;-1.342;2023-01-29T02:56:34;40;34;
61592;PMS5003;47485;51.378;-1.342;2023-01-29T02:59:06;35;31;
61592;PMS5003;47485;51.378;-1.342;2023-01-29T03:01:38;37;30;
61592;PMS5003;47485;51.378;-1.342;2023-01-29T03:04:14;37;33;
61592;PMS5003;47485;51.378;-1.342;2023-01-29T03:06:46;37;32;
61592;PMS5003;47485;51.378;-1.342;2023-01-29T03:09:18;35;31;
61592;PMS5003;47485;51.378;-1.342;2023-01-29T03:11:50;30;29;
61592;PMS5003;47485;51.378;-1.342;2023-01-29T03:14:23;35;33;
61592;PMS5003;47485;51.378;-1.342;2023-01-29T03:16:55;30;28;
61592;PMS5003;47485;51.378;-1.342;2023-01-29T03:19:24;26;23;
61592;PMS5003;47485;51.378;-1.342;2023-01-29T03:21:57;29;26;
61592;PMS5003;47485;51.378;-1.342;2023-01-29T03:24:29;24;23;
61592;PMS5003;47485;51.378;-1.342;2023-01-29T03:27:04;23;21;
61592;PMS5003;47485;51.378;-1.342;2023-01-29T03:29:36;27;24;
61592;PMS5003;47485;51.378;-1.342;2023-01-29T03:32:11;22;20;
61592;PMS5003;47485;51.378;-1.342;2023-01-29T03:34:40;22;21;
61592;PMS5003;47485;51.378;-1.342;2023-01-29T03:37:13;21;19;
61592;PMS5003;47485;51.378;-1.342;2023-01-29T03:39:44;36;28;
61592;PMS5003;47485;51.378;-1.342;2023-01-29T03:42:12;30;24;
61592;PMS5003;47485;51.378;-1.342;2023-01-29T03:44:50;29;24;
61592;PMS5003;47485;51.378;-1.342;2023-01-29T03:47:23;31;27;
61592;PMS5003;47485;51.378;-1.342;2023-01-29T03:49:58;31;26;
61592;PMS5003;47485;51.378;-1.342;2023-01-29T03:52:32;24;23;
61592;PMS5003;47485;51.378;-1.342;2023-01-29T03:55:10;27;22;
61592;PMS5003;47485;51.378;-1.342;2023-01-29T03:57:43;21;20;
61592;PMS5003;47485;51.378;-1.342;2023-01-29T04:00:18;22;18;
61592;PMS5003;47485;51.378;-1.342;2023-01-29T04:02:49;23;19;
61592;PMS5003;47485;51.378;-1.342;2023-01-29T04:05:23;23;20;
61592;PMS5003;47485;51.378;-1.342;2023-01-29T04:07:55;23;20;
61592;PMS5003;47485;51.378;-1.342;2023-01-29T04:10:27;23;21;
61592;PMS5003;47485;51.378;-1.342;2023-01-29T04:12:57;25;18;
61592;PMS5003;47485;51.378;-1.342;2023-01-29T04:15:29;20;20;
61592;PMS5003;47485;51.378;-1.342;2023-01-29T04:17:59;26;24;
61592;PMS5003;47485;51.378;-1.342;2023-01-29T04:20:27;21;18;
61592;PMS5003;47485;51.378;-1.342;2023-01-29T04:22:55;18;18;
61592;PMS5003;47485;51.378;-1.342;2023-01-29T04:25:22;20;20;
61592;PMS5003;47485;51.378;-1.342;2023-01-29T04:27:55;17;17;
61592;PMS5003;47485;51.378;-1.342;2023-01-29T04:30:27;18;17;
61592;PMS5003;47485;51.378;-1.342;2023-01-29T04:33:03;20;17;
61592;PMS5003;47485;51.378;-1.342;2023-01-29T04:35:41;21;20;
61592;PMS5003;47485;51.378;-1.342;2023-01-29T04:38:24;19;19;
61592;PMS5003;47485;51.378;-1.342;2023-01-29T04:41:01;18;17;
61592;PMS5003;47485;51.378;-1.342;2023-01-29T04:43:36;21;19;
61592;PMS5003;47485;51.378;-1.342;2023-01-29T04:46:11;18;16;
61592;PMS5003;47485;51.378;-1.342;2023-01-29T04:48:50;20;16;
61592;PMS5003;47485;51.378;-1.342;2023-01-29T04:51:30;22;20;
61592;PMS5003;47485;51.378;-1.342;2023-01-29T04:54:05;27;21;
61592;PMS5003;47485;51.378;-1.342;2023-01-29T04:56:38;25;23;
61592;PMS5003;47485;51.378;-1.342;2023-01-29T04:59:16;28;22;
61592;PMS5003;47485;51.378;-1.342;2023-01-29T05:01:46;26;20;
61592;PMS5003;47485;51.378;-1.342;2023-01-29T05:04:15;25;22;
61592;PMS5003;47485;51.378;-1.342;2023-01-29T05:06:45;24;18;
61592;PMS5003;47485;51.378;-1.342;2023-01-29T05:09:13;23;19;
61592;PMS5003;47485;51.378;-1.342;2023-01-29T05:11:43;32;27;
61592;PMS5003;47485;51.378;-1.342;2023-01-29T05:14:12;30;28;
61592;PMS5003;47485;51.378;-1.342;2023-01-29T05:16:43;24;21;
61592;PMS5003;47485;51.378;-1.342;2023-01-29T05:19:13;27;25;
61592;PMS5003;47485;51.378;-1.342;2023-01-29T05:21:42;27;24;
61592;PMS5003;47485;51.378;-1.342;2023-01-29T05:24:13;23;22;
61592;PMS5003;47485;51.378;-1.342;2023-01-29T05:26:41;26;23;
61592;PMS5003;47485;51.378;-1.342;2023-01-29T05:29:09;24;22;
61592;PMS5003;47485;51.378;-1.342;2023-01-29T05:31:36;27;24;
61592;PMS5003;47485;51.378;-1.342;2023-01-29T05:34:03;27;23;
61592;PMS5003;47485;51.378;-1.342;2023-01-29T05:36:30;21;21;
61592;PMS5003;47485;51.378;-1.342;2023-01-29T05:38:56;29;25;
61592;PMS5003;47485;51.378;-1.342;2023-01-29T05:41:22;26;23;
61592;PMS5003;47485;51.378;-1.342;2023-01-29T05:43:50;30;27;
61592;PMS5003;47485;51.378;-1.342;2023-01-29T05:46:17;30;23;
61592;PMS5003;47485;51.378;-1.342;2023-01-29T05:48:43;40;35;
61592;PMS5003;47485;51.378;-1.342;2023-01-29T05:51:10;30;25;
61592;PMS5003;47485;51.378;-1.342;2023-01-29T05:53:38;35;27;
61592;PMS5003;47485;51.378;-1.342;2023-01-29T05:56:05;29;26;
61592;PMS5003;47485;51.378;-1.342;2023-01-29T05:58:32;34;29;
61592;PMS5003;47485;51.378;-1.342;2023-01-29T06:01:06;30;25;
61592;PMS5003;47485;51.378;-1.342;2023-01-29T06:03:34;32;29;
61592;PMS5003;47485;51.378;-1.342;2023-01-29T06:06:01;27;25;
61592;PMS5003;47485;51.378;-1.342;2023-01-29T06:08:28;37;31;
61592;PMS5003;47485;51.378;-1.342;2023-01-29T06:10:55;33;30;
61592;PMS5003;47485;51.378;-1.342;2023-01-29T06:13:21;34;29;
61592;PMS5003;47485;51.378;-1.342;2023-01-29T06:15:48;27;25;
61592;PMS5003;47485;51.378;-1.342;2023-01-29T06:18:16;28;25;
61592;PMS5003;47485;51.378;-1.342;2023-01-29T06:20:44;34;31;
61592;PMS5003;47485;51.378;-1.342;2023-01-29T06:23:11;28;24;
61592;PMS5003;47485;51.378;-1.342;2023-01-29T06:25:39;32;30;
61592;PMS5003;47485;51.378;-1.342;2023-01-29T06:28:06;30;24;
61592;PMS5003;47485;51.378;-1.342;2023-01-29T06:30:33;36;30;
61592;PMS5003;47485;51.378;-1.342;2023-01-29T06:33:00;26;22;
61592;PMS5003;47485;51.378;-1.342;2023-01-29T06:35:27;35;31;
61592;PMS5003;47485;51.378;-1.342;2023-01-29T06:37:55;27;27;
61592;PMS5003;47485;51.378;-1.342;2023-01-29T06:40:21;32;27;
61592;PMS5003;47485;51.378;-1.342;2023-01-29T06:42:48;32;26;
61592;PMS5003;47485;51.378;-1.342;2023-01-29T06:45:15;32;30;
61592;PMS5003;47485;51.378;-1.342;2023-01-29T06:47:41;26;25;
61592;PMS5003;47485;51.378;-1.342;2023-01-29T06:50:08;33;29;
61592;PMS5003;47485;51.378;-1.342;2023-01-29T06:52:36;29;28;
61592;PMS5003;47485;51.378;-1.342;2023-01-29T06:55:04;31;25;
61592;PMS5003;47485;51.378;-1.342;2023-01-29T06:57:32;32;29;
61592;PMS5003;47485;51.378;-1.342;2023-01-29T06:59:58;38;31;
61592;PMS5003;47485;51.378;-1.342;2023-01-29T07:02:25;36;32;
61592;PMS5003;47485;51.378;-1.342;2023-01-29T07:04:52;32;28;
61592;PMS5003;47485;51.378;-1.342;2023-01-29T07:07:19;41;32;
61592;PMS5003;47485;51.378;-1.342;2023-01-29T07:09:47;35;29;
61592;PMS5003;47485;51.378;-1.342;2023-01-29T07:12:14;37;32;
61592;PMS5003;47485;51.378;-1.342;2023-01-29T07:14:41;36;30;
61592;PMS5003;47485;51.378;-1.342;2023-01-29T07:17:08;41;31;
61592;PMS5003;47485;51.378;-1.342;2023-01-29T07:19:35;39;31;
61592;PMS5003;47485;51.378;-1.342;2023-01-29T07:22:01;32;27;
61592;PMS5003;47485;51.378;-1.342;2023-01-29T07:24:28;39;36;
61592;PMS5003;47485;51.378;-1.342;2023-01-29T07:26:55;31;25;
61592;PMS5003;47485;51.378;-1.342;2023-01-29T07:29:21;34;28;
61592;PMS5003;47485;51.378;-1.342;2023-01-29T07:31:49;34;32;
61592;PMS5003;47485;51.378;-1.342;2023-01-29T07:34:15;32;28;
61592;PMS5003;47485;51.378;-1.342;2023-01-29T07:36:43;27;25;
61592;PMS5003;47485;51.378;-1.342;2023-01-29T07:39:09;34;31;
61592;PMS5003;47485;51.378;-1.342;2023-01-29T07:41:36;34;29;
61592;PMS5003;47485;51.378;-1.342;2023-01-29T07:44:03;39;31;
61592;PMS5003;47485;51.378;-1.342;2023-01-29T07:46:30;35;30;
61592;PMS5003;47485;51.378;-1.342;2023-01-29T07:48:57;35;27;
61592;PMS5003;47485;51.378;-1.342;2023-01-29T07:51:24;33;31;
61592;PMS5003;47485;51.378;-1.342;2023-01-29T07:53:50;33;26;
61592;PMS5003;47485;51.378;-1.342;2023-01-29T07:56:18;40;34;
61592;PMS5003;47485;51.378;-1.342;2023-01-29T07:58:45;32;28;
61592;PMS5003;47485;51.378;-1.342;2023-01-29T08:01:13;40;33;
61592;PMS5003;47485;51.378;-1.342;2023-01-29T08:03:40;36;33;
61592;PMS5003;47485;51.378;-1.342;2023-01-29T08:06:07;32;31;
61592;PMS5003;47485;51.378;-1.342;2023-01-29T08:08:35;30;29;
61592;PMS5003;47485;51.378;-1.342;2023-01-29T08:11:02;40;34;
61592;PMS5003;47485;51.378;-1.342;2023-01-29T08:13:29;31;27;
61592;PMS5003;47485;51.378;-1.342;2023-01-29T08:15:58;32;29;
61592;PMS5003;47485;51.378;-1.342;2023-01-29T08:18:25;34;30;
61592;PMS5003;47485;51.378;-1.342;2023-01-29T08:20:57;29;26;
61592;PMS5003;47485;51.378;-1.342;2023-01-29T08:23:25;25;23;
61592;PMS5003;47485;51.378;-1.342;2023-01-29T08:25:52;34;30;
61592;PMS5003;47485;51.378;-1.342;2023-01-29T08:28:19;33;28;
61592;PMS5003;47485;51.378;-1.342;2023-01-29T08:30:45;34;28;
61592;PMS5003;47485;51.378;-1.342;2023-01-29T08:33:13;29;26;
61592;PMS5003;47485;51.378;-1.342;2023-01-29T08:35:40;25;21;
61592;PMS5003;47485;51.378;-1.342;2023-01-29T08:38:07;24;23;
61592;PMS5003;47485;51.378;-1.342;2023-01-29T08:40:34;30;24;
61592;PMS5003;47485;51.378;-1.342;2023-01-29T08:43:02;34;30;
61592;PMS5003;47485;51.378;-1.342;2023-01-29T08:45:30;27;22;
61592;PMS5003;47485;51.378;-1.342;2023-01-29T08:47:58;31;28;
61592;PMS5003;47485;51.378;-1.342;2023-01-29T08:50:25;27;24;
61592;PMS5003;47485;51.378;-1.342;2023-01-29T08:52:52;30;26;
61592;PMS5003;47485;51.378;-1.342;2023-01-29T08:55:22;26;23;
61592;PMS5003;47485;51.378;-1.342;2023-01-29T08:57:49;28;23;
61592;PMS5003;47485;51.378;-1.342;2023-01-29T09:00:16;30;28;
61592;PMS5003;47485;51.378;-1.342;2023-01-29T09:02:44;29;26;
61592;PMS5003;47485;51.378;-1.342;2023-01-29T09:05:11;33;25;
61592;PMS5003;47485;51.378;-1.342;2023-01-29T09:07:38;30;28;
61592;PMS5003;47485;51.378;-1.342;2023-01-29T09:10:05;31;26;
61592;PMS5003;47485;51.378;-1.342;2023-01-29T09:12:34;29;26;
61592;PMS5003;47485;51.378;-1.342;2023-01-29T09:15:01;25;23;
61592;PMS5003;47485;51.378;-1.342;2023-01-29T09:17:28;32;26;
61592;PMS5003;47485;51.378;-1.342;2023-01-29T09:19:54;24;21;
61592;PMS5003;47485;51.378;-1.342;2023-01-29T09:22:21;30;26;
61592;PMS5003;47485;51.378;-1.342;2023-01-29T09:24:47;30;23;
61592;PMS5003;47485;51.378;-1.342;2023-01-29T09:27:14;27;26;
61592;PMS5003;47485;51.378;-1.342;2023-01-29T09:29:41;31;26;
61592;PMS5003;47485;51.378;-1.342;2023-01-29T09:32:09;24;20;
61592;PMS5003;47485;51.378;-1.342;2023-01-29T09:34:35;23;20;
61592;PMS5003;47485;51.378;-1.342;2023-01-29T09:37:02;25;20;
61592;PMS5003;47485;51.378;-1.342;2023-01-29T09:39:29;20;16;
61592;PMS5003;47485;51.378;-1.342;2023-01-29T09:41:57;20;19;
61592;PMS5003;47485;51.378;-1.342;2023-01-29T09:44:34;25;24;
61592;PMS5003;47485;51.378;-1.342;2023-01-29T09:47:13;23;21;
61592;PMS5003;47485;51.378;-1.342;2023-01-29T09:49:43;28;26;
61592;PMS5003;47485;51.378;-1.342;2023-01-29T09:52:14;27;22;
61592;PMS5003;47485;51.378;-1.342;2023-01-29T09:54:47;19;18;
61592;PMS5003;47485;51.378;-1.342;2023-01-29T09:57:22;20;20;
61592;PMS5003;47485;51.378;-1.342;2023-01-29T09:59:53;26;23;
61592;PMS5003;47485;51.378;-1.342;2023-01-29T10:02:23;17;17;
61592;PMS5003;47485;51.378;-1.342;2023-01-29T10:05:12;28;21;
61592;PMS5003;47485;51.378;-1.342;2023-01-29T10:07:59;20;17;
61592;PMS5003;47485;51.378;-1.342;2023-01-29T10:10:41;24;21;
61592;PMS5003;47485;51.378;-1.342;2023-01-29T10:13:18;22;18;
61592;PMS5003;47485;51.378;-1.342;2023-01-29T10:15:56;21;20;
61592;PMS5003;47485;51.378;-1.342;2023-01-29T10:18:47;20;18;
61592;PMS5003;47485;51.378;-1.342;2023-01-29T10:22:34;21;18;
61592;PMS5003;47485;51.378;-1.342;2023-01-29T10:25:16;19;18;
61592;PMS5003;47485;51.378;-1.342;2023-01-29T10:27:46;18;14;
61592;PMS5003;47485;51.378;-1.342;2023-01-29T10:30:19;16;13;
61592;PMS5003;47485;51.378;-1.342;2023-01-29T10:32:53;18;17;
61592;PMS5003;47485;51.378;-1.342;2023-01-29T10:35:22;19;17;
61592;PMS5003;47485;51.378;-1.342;2023-01-29T10:37:54;15;13;
61592;PMS5003;47485;51.378;-1.342;2023-01-29T10:40:26;16;13;
61592;PMS5003;47485;51.378;-1.342;2023-01-29T10:43:02;16;13;
61592;PMS5003;47485;51.378;-1.342;2023-01-29T10:45:38;17;14;
61592;PMS5003;47485;51.378;-1.342;2023-01-29T10:48:21;15;14;
61592;PMS5003;47485;51.378;-1.342;2023-01-29T10:51:01;15;13;
61592;PMS5003;47485;51.378;-1.342;2023-01-29T10:53:38;12;11;
61592;PMS5003;47485;51.378;-1.342;2023-01-29T10:56:18;15;14;
61592;PMS5003;47485;51.378;-1.342;2023-01-29T10:58:56;12;10;
61592;PMS5003;47485;51.378;-1.342;2023-01-29T11:01:27;13;12;
61592;PMS5003;47485;51.378;-1.342;2023-01-29T11:03:55;11;11;
61592;PMS5003;47485;51.378;-1.342;2023-01-29T11:06:28;20;18;
61592;PMS5003;47485;51.378;-1.342;2023-01-29T11:08:58;15;15;
61592;PMS5003;47485;51.378;-1.342;2023-01-29T11:11:32;10;10;
61592;PMS5003;47485;51.378;-1.342;2023-01-29T11:14:07;9;9;
61592;PMS5003;47485;51.378;-1.342;2023-01-29T11:16:39;14;12;
61592;PMS5003;47485;51.378;-1.342;2023-01-29T11:19:07;11;10;
61592;PMS5003;47485;51.378;-1.342;2023-01-29T11:21:48;12;12;
61592;PMS5003;47485;51.378;-1.342;2023-01-29T11:24:17;11;10;
61592;PMS5003;47485;51.378;-1.342;2023-01-29T11:26:44;12;12;
61592;PMS5003;47485;51.378;-1.342;2023-01-29T11:29:27;9;8;
61592;PMS5003;47485;51.378;-1.342;2023-01-29T11:32:00;10;10;
61592;PMS5003;47485;51.378;-1.342;2023-01-29T11:34:31;10;10;
61592;PMS5003;47485;51.378;-1.342;2023-01-29T11:36:58;14;12;
61592;PMS5003;47485;51.378;-1.342;2023-01-29T11:39:26;9;7;
61592;PMS5003;47485;51.378;-1.342;2023-01-29T11:41:55;11;9;
61592;PMS5003;47485;51.378;-1.342;2023-01-29T11:44:26;10;8;
61592;PMS5003;47485;51.378;-1.342;2023-01-29T11:46:54;8;7;
61592;PMS5003;47485;51.378;-1.342;2023-01-29T11:49:26;9;9;
61592;PMS5003;47485;51.378;-1.342;2023-01-29T11:51:58;7;6;
61592;PMS5003;47485;51.378;-1.342;2023-01-29T11:54:31;6;5;
61592;PMS5003;47485;51.378;-1.342;2023-01-29T11:57:01;7;6;
61592;PMS5003;47485;51.378;-1.342;2023-01-29T11:59:34;8;7;
61592;PMS5003;47485;51.378;-1.342;2023-01-29T12:02:13;5;5;
61592;PMS5003;47485;51.378;-1.342;2023-01-29T12:04:47;5;5;
61592;PMS5003;47485;51.378;-1.342;2023-01-29T12:07:16;7;5;
61592;PMS5003;47485;51.378;-1.342;2023-01-29T12:09:49;6;4;
61592;PMS5003;47485;51.378;-1.342;2023-01-29T12:12:27;7;5;
61592;PMS5003;47485;51.378;-1.342;2023-01-29T12:15:04;7;7;
61592;PMS5003;47485;51.378;-1.342;2023-01-29T12:17:42;6;5;
61592;PMS5003;47485;51.378;-1.342;2023-01-29T12:20:16;5;5;
61592;PMS5003;47485;51.378;-1.342;2023-01-29T12:22:49;7;6;
61592;PMS5003;47485;51.378;-1.342;2023-01-29T12:25:23;7;6;
61592;PMS5003;47485;51.378;-1.342;2023-01-29T12:28:01;7;6;
61592;PMS5003;47485;51.378;-1.342;2023-01-29T12:30:35;6;4;
61592;PMS5003;47485;51.378;-1.342;2023-01-29T12:33:11;7;4;
61592;PMS5003;47485;51.378;-1.342;2023-01-29T12:35:42;5;4;
61592;PMS5003;47485;51.378;-1.342;2023-01-29T12:38:13;5;5;
61592;PMS5003;47485;51.378;-1.342;2023-01-29T12:40:45;4;4;
61592;PMS5003;47485;51.378;-1.342;2023-01-29T12:43:15;3;3;
61592;PMS5003;47485;51.378;-1.342;2023-01-29T12:45:45;3;3;
61592;PMS5003;47485;51.378;-1.342;2023-01-29T12:48:18;5;4;
61592;PMS5003;47485;51.378;-1.342;2023-01-29T12:50:49;3;3;
61592;PMS5003;47485;51.378;-1.342;2023-01-29T12:53:21;5;4;
61592;PMS5003;47485;51.378;-1.342;2023-01-29T12:55:52;4;4;
61592;PMS5003;47485;51.378;-1.342;2023-01-29T12:58:24;3;2;
61592;PMS5003;47485;51.378;-1.342;2023-01-29T13:00:56;2;2;
61592;PMS5003;47485;51.378;-1.342;2023-01-29T13:03:29;3;3;
61592;PMS5003;47485;51.378;-1.342;2023-01-29T13:06:05;1;1;
61592;PMS5003;47485;51.378;-1.342;2023-01-29T13:08:38;7;4;
61592;PMS5003;47485;51.378;-1.342;2023-01-29T13:11:11;4;4;
61592;PMS5003;47485;51.378;-1.342;2023-01-29T13:13:48;2;2;
61592;PMS5003;47485;51.378;-1.342;2023-01-29T13:16:18;2;2;
61592;PMS5003;47485;51.378;-1.342;2023-01-29T13:18:46;2;2;
61592;PMS5003;47485;51.378;-1.342;2023-01-29T13:21:19;2;1;
61592;PMS5003;47485;51.378;-1.342;2023-01-29T13:23:49;5;4;
61592;PMS5003;47485;51.378;-1.342;2023-01-29T13:26:19;2;2;
61592;PMS5003;47485;51.378;-1.342;2023-01-29T13:28:47;4;3;
61592;PMS5003;47485;51.378;-1.342;2023-01-29T13:31:20;4;3;
61592;PMS5003;47485;51.378;-1.342;2023-01-29T13:33:53;3;3;
61592;PMS5003;47485;51.378;-1.342;2023-01-29T13:36:24;4;3;
61592;PMS5003;47485;51.378;-1.342;2023-01-29T13:38:57;2;2;
61592;PMS5003;47485;51.378;-1.342;2023-01-29T13:41:34;6;3;
61592;PMS5003;47485;51.378;-1.342;2023-01-29T13:44:04;2;2;
61592;PMS5003;47485;51.378;-1.342;2023-01-29T13:46:43;2;2;
61592;PMS5003;47485;51.378;-1.342;2023-01-29T13:49:21;4;3;
61592;PMS5003;47485;51.378;-1.342;2023-01-29T13:51:53;3;3;
61592;PMS5003;47485;51.378;-1.342;2023-01-29T13:54:22;4;3;
61592;PMS5003;47485;51.378;-1.342;2023-01-29T13:56:59;1;1;
61592;PMS5003;47485;51.378;-1.342;2023-01-29T14:00:00;2;2;
61592;PMS5003;47485;51.378;-1.342;2023-01-29T14:02:28;3;3;
61592;PMS5003;47485;51.378;-1.342;2023-01-29T14:06:00;2;2;
61592;PMS5003;47485;51.378;-1.342;2023-01-29T14:08:44;1;1;
61592;PMS5003;47485;51.378;-1.342;2023-01-29T14:11:31;1;1;
61592;PMS5003;47485;51.378;-1.342;2023-01-29T14:14:00;1;0;
61592;PMS5003;47485;51.378;-1.342;2023-01-29T14:16:32;0;0;
61592;PMS5003;47485;51.378;-1.342;2023-01-29T14:19:01;1;1;
61592;PMS5003;47485;51.378;-1.342;2023-01-29T14:21:31;1;1;
61592;PMS5003;47485;51.378;-1.342;2023-01-29T14:24:06;2;2;
61592;PMS5003;47485;51.378;-1.342;2023-01-29T14:26:40;0;0;
61592;PMS5003;47485;51.378;-1.342;2023-01-29T14:29:15;1;1;
61592;PMS5003;47485;51.378;-1.342;2023-01-29T14:31:46;2;1;
61592;PMS5003;47485;51.378;-1.342;2023-01-29T14:34:18;2;0;
61592;PMS5003;47485;51.378;-1.342;2023-01-29T14:36:50;1;1;
61592;PMS5003;47485;51.378;-1.342;2023-01-29T14:39:23;2;2;
61592;PMS5003;47485;51.378;-1.342;2023-01-29T14:41:56;1;1;
61592;PMS5003;47485;51.378;-1.342;2023-01-29T14:44:58;1;1;
61592;PMS5003;47485;51.378;-1.342;2023-01-29T14:48:37;3;2;
61592;PMS5003;47485;51.378;-1.342;2023-01-29T14:51:11;1;0;
61592;PMS5003;47485;51.378;-1.342;2023-01-29T14:53:44;0;0;
61592;PMS5003;47485;51.378;-1.342;2023-01-29T14:56:20;3;1;
61592;PMS5003;47485;51.378;-1.342;2023-01-29T14:58:54;0;0;
61592;PMS5003;47485;51.378;-1.342;2023-01-29T15:01:27;1;1;
61592;PMS5003;47485;51.378;-1.342;2023-01-29T15:04:01;1;1;
61592;PMS5003;47485;51.378;-1.342;2023-01-29T15:06:32;0;0;
61592;PMS5003;47485;51.378;-1.342;2023-01-29T15:09:08;2;1;
61592;PMS5003;47485;51.378;-1.342;2023-01-29T15:11:43;0;0;
61592;PMS5003;47485;51.378;-1.342;2023-01-29T15:14:17;0;0;
61592;PMS5003;47485;51.378;-1.342;2023-01-29T15:16:53;0;0;
61592;PMS5003;47485;51.378;-1.342;2023-01-29T15:19:28;2;0;
61592;PMS5003;47485;51.378;-1.342;2023-01-29T15:22:00;0;0;
61592;PMS5003;47485;51.378;-1.342;2023-01-29T15:24:29;1;1;
61592;PMS5003;47485;51.378;-1.342;2023-01-29T15:26:55;0;0;
61592;PMS5003;47485;51.378;-1.342;2023-01-29T15:29:23;2;2;
61592;PMS5003;47485;51.378;-1.342;2023-01-29T15:31:53;0;0;
61592;PMS5003;47485;51.378;-1.342;2023-01-29T15:34:20;0;0;
61592;PMS5003;47485;51.378;-1.342;2023-01-29T15:36:48;0;0;
61592;PMS5003;47485;51.378;-1.342;2023-01-29T15:39:16;2;1;
61592;PMS5003;47485;51.378;-1.342;2023-01-29T15:41:45;0;0;
61592;PMS5003;47485;51.378;-1.342;2023-01-29T15:44:14;0;0;
61592;PMS5003;47485;51.378;-1.342;2023-01-29T15:46:43;2;1;
61592;PMS5003;47485;51.378;-1.342;2023-01-29T15:49:16;0;0;
61592;PMS5003;47485;51.378;-1.342;2023-01-29T15:51:53;0;0;
61592;PMS5003;47485;51.378;-1.342;2023-01-29T15:54:22;1;1;
61592;PMS5003;47485;51.378;-1.342;2023-01-29T15:56:50;0;0;
61592;PMS5003;47485;51.378;-1.342;2023-01-29T15:59:18;0;0;
61592;PMS5003;47485;51.378;-1.342;2023-01-29T16:01:48;1;0;
61592;PMS5003;47485;51.378;-1.342;2023-01-29T16:04:16;1;0;
61592;PMS5003;47485;51.378;-1.342;2023-01-29T16:06:47;0;0;
61592;PMS5003;47485;51.378;-1.342;2023-01-29T16:09:18;1;1;
61592;PMS5003;47485;51.378;-1.342;2023-01-29T16:11:47;0;0;
61592;PMS5003;47485;51.378;-1.342;2023-01-29T16:14:15;0;0;
61592;PMS5003;47485;51.378;-1.342;2023-01-29T16:16:47;0;0;
61592;PMS5003;47485;51.378;-1.342;2023-01-29T16:19:19;1;1;
61592;PMS5003;47485;51.378;-1.342;2023-01-29T16:21:49;1;1;
61592;PMS5003;47485;51.378;-1.342;2023-01-29T16:24:20;2;2;
61592;PMS5003;47485;51.378;-1.342;2023-01-29T16:26:48;1;1;
61592;PMS5003;47485;51.378;-1.342;2023-01-29T16:29:18;2;2;
61592;PMS5003;47485;51.378;-1.342;2023-01-29T16:31:47;2;2;
61592;PMS5003;47485;51.378;-1.342;2023-01-29T16:34:18;1;1;
61592;PMS5003;47485;51.378;-1.342;2023-01-29T16:36:50;1;1;
61592;PMS5003;47485;51.378;-1.342;2023-01-29T16:39:19;2;2;